Notice: Undefined index: language in /home/u908952976/domains/airgaviota-va.com/public_html/vam/index.php on line 25
AirGaviota-VA

... VIRTUAL FLIGHT...OUR PASSION



 FLIGHT DETAILS
Pilot: GVT462 Peter Voksan Aircraft: AN24_FELIS AIRGAVIOTA Distance: 194NM
Departure MUNG Arrival MUHA Duration 00:37
Validation Validated Type Charter Tail Number GV-AAN
ZFW 17013 Block Fuel/Initial FOB 640/0 Flight Fuel 479
Passengers 15 Cargo 0 Alternate MUVR
Departure Time 1815 Cruise Speed 200 Flight Level 5000
Flight Type IFR Aircraft Type AN24 Weight Unit Kg
Date 21-04-2020 Pilot Comments Network IVAO
Crashed No Validator Comments Flight Rating -100

 ROUTE
ROUTE UHA
REMARKS
 FLIGHT FAILURES
Crashed OK Beacon off & Engine Running OK KIAS Above 250 below 10000 FT OK
Lights OFF below 10000 FT OK Lights ON above 10000 FT OK Stall OK
Overspeed OK Flight paused OK Refueling OK
Slew detected OK Taxi & Taxi lights off Fail Take off & lights off OK
Landing & lights off OK Landed in not planned airport OK Taxi Speed Fail
Wrong altimeter in Take off OK Wrong altimeter in Landing OK
 LANDING ANALYSIS
Landing wind 183º/11 kt Landing heading 149
Landing VS: -101.5 ft/min Landing IAS: 104.11 kt
Landing Force G 1 G Landing Bank 0.6
Landing Pitch -1.1 Landing Flaps 38
Navigation Lights ON Landing Lights ON
Beacon Lights ON Strobe Lights OFF
 FLIGHT MAP
 ALTITUDE CHART
 FLIGHT FINANCIAL REPORT
 MAIN EVENTS
DATE EVENTIASALTITUDE
2020-04-21 20:03:34 SIM ACARS version 1.4.1090
2020-04-21 20:03:34 BOARDING090
2020-04-21 20:06:11 STARTING ENGINE 3 090
2020-04-21 20:09:17 STARTING ENGINE 2 090
2020-04-21 20:10:19 STARTING ENGINE 1 090
2020-04-21 20:11:48 STOPPING ENGINE 3 090
2020-04-21 20:13:32 FLAPS EXTENSION 5 % 090
2020-04-21 20:13:33 FLAPS EXTENSION 7 % 090
2020-04-21 20:13:33 FLAPS EXTENSION 12 % 090
2020-04-21 20:13:33 FLAPS EXTENSION 15 % 090
2020-04-21 20:13:34 FLAPS EXTENSION 20 % 090
2020-04-21 20:13:34 FLAPS EXTENSION 21 % 090
2020-04-21 20:13:34 FLAPS EXTENSION 23 % 090
2020-04-21 20:13:35 FLAPS EXTENSION 24 % 090
2020-04-21 20:13:35 FLAPS EXTENSION 25 % 090
2020-04-21 20:13:35 FLAPS EXTENSION 26 % 090
2020-04-21 20:13:35 FLAPS EXTENSION 28 % 090
2020-04-21 20:13:36 FLAPS EXTENSION 30 % 090
2020-04-21 20:13:36 FLAPS EXTENSION 31 % 090
2020-04-21 20:13:36 FLAPS EXTENSION 34 % 090
2020-04-21 20:13:36 FLAPS EXTENSION 35 % 090
2020-04-21 20:13:36 FLAPS EXTENSION 37 % 090
2020-04-21 20:13:37 FLAPS EXTENSION 38 % 090
2020-04-21 20:17:28 TAXI TO THE RWY 790
2020-04-21 20:17:28 TAXING WITH TAXI LIGHTS OFF790
2020-04-21 20:20:31 ROLLING FOR TAKE OFF5090
2020-04-21 20:20:48 TAKE OFF10594
2020-04-21 20:20:52 GEAR UP109163
2020-04-21 20:21:08 FLAPS EXTENSION 37 % 107529
2020-04-21 20:21:08 FLAPS EXTENSION 36 % 107533
2020-04-21 20:21:08 FLAPS EXTENSION 33 % 107538
2020-04-21 20:21:09 FLAPS EXTENSION 31 % 108542
2020-04-21 20:21:09 FLAPS EXTENSION 30 % 108545
2020-04-21 20:21:09 FLAPS EXTENSION 28 % 108548
2020-04-21 20:21:09 FLAPS EXTENSION 27 % 108550
2020-04-21 20:21:09 FLAPS EXTENSION 26 % 109553
2020-04-21 20:21:10 FLAPS EXTENSION 24 % 109555
2020-04-21 20:21:18 GEAR DOWN121654
2020-04-21 20:21:19 GEAR UP121655
2020-04-21 20:21:23 FLAPS EXTENSION 23 % 124740
2020-04-21 20:21:23 FLAPS EXTENSION 21 % 124744
2020-04-21 20:21:24 FLAPS EXTENSION 20 % 125747
2020-04-21 20:21:24 FLAPS EXTENSION 18 % 125752
2020-04-21 20:21:24 FLAPS EXTENSION 17 % 125756
2020-04-21 20:21:24 FLAPS EXTENSION 15 % 125760
2020-04-21 20:21:24 FLAPS EXTENSION 14 % 125765
2020-04-21 20:21:25 FLAPS EXTENSION 12 % 125768
2020-04-21 20:21:25 FLAPS EXTENSION 11 % 125772
2020-04-21 20:21:25 FLAPS EXTENSION 9 % 125778
2020-04-21 20:21:25 FLAPS EXTENSION 8 % 125782
2020-04-21 20:21:25 FLAPS EXTENSION 6 % 125786
2020-04-21 20:21:26 FLAPS EXTENSION 5 % 126790
2020-04-21 20:21:26 FLAPS EXTENSION 4 % 126794
2020-04-21 20:21:26 FLAPS EXTENSION 2 % 126799
2020-04-21 20:21:26 FLAPS EXTENSION 1 % 126803
2020-04-21 20:21:26 FLAPS EXTENSION 0 % 126806
2020-04-21 20:27:56 DESCEND2095275
2020-04-21 20:30:18 CRUISE2175030
2020-04-21 20:38:18 DESCEND2114962
2020-04-21 20:42:18 CRUISE2223048
2020-04-21 20:48:26 FLAPS EXTENSION 1 % 1443018
2020-04-21 20:48:26 FLAPS EXTENSION 1 % 1443014
2020-04-21 20:48:26 FLAPS EXTENSION 3 % 1433018
2020-04-21 20:48:26 FLAPS EXTENSION 4 % 1423018
2020-04-21 20:48:27 FLAPS EXTENSION 8 % 1413018
2020-04-21 20:48:27 FLAPS EXTENSION 10 % 1413018
2020-04-21 20:48:27 FLAPS EXTENSION 10 % 1413018
2020-04-21 20:48:28 FLAPS EXTENSION 11 % 1403015
2020-04-21 20:48:44 FLAPS EXTENSION 12 % 1322989
2020-04-21 20:48:44 FLAPS EXTENSION 14 % 1322988
2020-04-21 20:48:44 FLAPS EXTENSION 17 % 1322985
2020-04-21 20:48:44 FLAPS EXTENSION 18 % 1322984
2020-04-21 20:48:45 FLAPS EXTENSION 19 % 1322982
2020-04-21 20:48:45 FLAPS EXTENSION 21 % 1322980
2020-04-21 20:48:45 FLAPS EXTENSION 22 % 1322978
2020-04-21 20:48:45 FLAPS EXTENSION 23 % 1322977
2020-04-21 20:48:45 FLAPS EXTENSION 24 % 1322976
2020-04-21 20:48:47 DESCEND1322963
2020-04-21 20:49:14 FLAPS EXTENSION 24 % 1252924
2020-04-21 20:49:14 FLAPS EXTENSION 26 % 1262926
2020-04-21 20:49:14 FLAPS EXTENSION 27 % 1262926
2020-04-21 20:49:15 FLAPS EXTENSION 29 % 1262927
2020-04-21 20:49:15 FLAPS EXTENSION 30 % 1262928
2020-04-21 20:49:15 FLAPS EXTENSION 32 % 1262929
2020-04-21 20:49:15 FLAPS EXTENSION 33 % 1272930
2020-04-21 20:49:15 FLAPS EXTENSION 34 % 1272931
2020-04-21 20:49:15 FLAPS EXTENSION 36 % 1272932
2020-04-21 20:49:16 FLAPS EXTENSION 37 % 1262933
2020-04-21 20:49:16 FLAPS EXTENSION 38 % 1262933
2020-04-21 20:49:37 CLIMBING1273012
2020-04-21 20:50:47 CRUISE1373213
2020-04-21 20:51:17 CLIMBING1373316
2020-04-21 20:51:47 CRUISE1403315
2020-04-21 20:52:37 DESCEND1473124
2020-04-21 20:52:40 GEAR DOWN1493088
2020-04-21 20:54:41 FLAPS EXTENSION 38 % 1262589
2020-04-21 20:54:41 FLAPS EXTENSION 40 % 1262589
2020-04-21 20:54:42 FLAPS EXTENSION 42 % 1252589
2020-04-21 20:54:42 FLAPS EXTENSION 43 % 1252589
2020-04-21 20:54:42 FLAPS EXTENSION 44 % 1252589
2020-04-21 20:54:42 FLAPS EXTENSION 47 % 1252590
2020-04-21 20:54:42 FLAPS EXTENSION 48 % 1242591
2020-04-21 20:54:43 FLAPS EXTENSION 50 % 1242592
2020-04-21 20:54:43 FLAPS EXTENSION 51 % 1242589
2020-04-21 20:54:43 FLAPS EXTENSION 52 % 1232594
2020-04-21 20:54:43 FLAPS EXTENSION 55 % 1232595
2020-04-21 20:54:44 FLAPS EXTENSION 56 % 1222597
2020-04-21 20:54:44 FLAPS EXTENSION 57 % 1222598
2020-04-21 20:54:44 FLAPS EXTENSION 58 % 1212600
2020-04-21 20:54:44 FLAPS EXTENSION 59 % 1212597
2020-04-21 20:54:44 FLAPS EXTENSION 61 % 1212603
2020-04-21 20:54:45 FLAPS EXTENSION 62 % 1202604
2020-04-21 20:55:31 FLAPS EXTENSION 63 % 1142705
2020-04-21 20:55:32 FLAPS EXTENSION 65 % 1142705
2020-04-21 20:55:32 FLAPS EXTENSION 66 % 1142705
2020-04-21 20:55:32 FLAPS EXTENSION 67 % 1142706
2020-04-21 20:55:32 FLAPS EXTENSION 70 % 1142706
2020-04-21 20:55:33 FLAPS EXTENSION 73 % 1142706
2020-04-21 20:55:33 FLAPS EXTENSION 74 % 1142706
2020-04-21 20:55:33 FLAPS EXTENSION 75 % 1142707
2020-04-21 20:55:33 FLAPS EXTENSION 76 % 1142707
2020-04-21 20:55:33 FLAPS EXTENSION 79 % 1142707
2020-04-21 20:55:34 FLAPS EXTENSION 80 % 1142708
2020-04-21 20:55:34 FLAPS EXTENSION 81 % 1142709
2020-04-21 20:55:34 FLAPS EXTENSION 82 % 1142709
2020-04-21 20:55:34 FLAPS EXTENSION 83 % 1142710
2020-04-21 20:55:34 FLAPS EXTENSION 84 % 1142711
2020-04-21 20:55:35 FLAPS EXTENSION 85 % 1132712
2020-04-21 20:55:35 FLAPS EXTENSION 86 % 1132712
2020-04-21 20:55:35 FLAPS EXTENSION 89 % 1132714
2020-04-21 20:55:35 FLAPS EXTENSION 90 % 1132715
2020-04-21 20:55:35 FLAPS EXTENSION 91 % 1122716
2020-04-21 20:55:36 FLAPS EXTENSION 92 % 1122714
2020-04-21 20:55:36 FLAPS EXTENSION 93 % 1122719
2020-04-21 20:55:36 FLAPS EXTENSION 94 % 1122721
2020-04-21 20:55:36 FLAPS EXTENSION 96 % 1122723
2020-04-21 20:55:36 FLAPS EXTENSION 97 % 1122724
2020-04-21 20:55:37 FLAPS EXTENSION 100 % 1102733
2020-04-21 20:55:47 CLIMBING1011993
2020-04-21 20:56:17 DESCEND1061810
2020-04-21 20:58:37 CRUISE106225
2020-04-21 20:58:41 LANDING104222
2020-04-21 20:59:21 TAXI TO THE GATE19220
2020-04-21 20:59:25 FLAPS EXTENSION 99 % 21219
2020-04-21 20:59:25 FLAPS EXTENSION 97 % 21219
2020-04-21 20:59:26 FLAPS EXTENSION 96 % 21219
2020-04-21 20:59:26 FLAPS EXTENSION 93 % 20219
2020-04-21 20:59:26 FLAPS EXTENSION 92 % 19219
2020-04-21 20:59:26 FLAPS EXTENSION 91 % 18219
2020-04-21 20:59:27 FLAPS EXTENSION 89 % 17219
2020-04-21 20:59:27 FLAPS EXTENSION 88 % 17219
2020-04-21 20:59:27 FLAPS EXTENSION 87 % 17219
2020-04-21 20:59:27 FLAPS EXTENSION 86 % 16220
2020-04-21 20:59:27 FLAPS EXTENSION 84 % 16220
2020-04-21 20:59:28 FLAPS EXTENSION 83 % 16220
2020-04-21 20:59:28 FLAPS EXTENSION 81 % 16220
2020-04-21 20:59:28 FLAPS EXTENSION 80 % 16220
2020-04-21 20:59:28 FLAPS EXTENSION 79 % 18220
2020-04-21 20:59:28 FLAPS EXTENSION 78 % 20220
2020-04-21 20:59:29 FLAPS EXTENSION 77 % 20216
2020-04-21 20:59:29 FLAPS EXTENSION 76 % 20216
2020-04-21 20:59:29 FLAPS EXTENSION 75 % 18216
2020-04-21 20:59:29 FLAPS EXTENSION 74 % 17216
2020-04-21 20:59:30 FLAPS EXTENSION 72 % 17216
2020-04-21 20:59:30 FLAPS EXTENSION 71 % 18216
2020-04-21 20:59:30 FLAPS EXTENSION 70 % 20216
2020-04-21 20:59:30 FLAPS EXTENSION 70 % 18216
2020-04-21 20:59:30 FLAPS EXTENSION 69 % 19220
2020-04-21 20:59:30 FLAPS EXTENSION 68 % 18220
2020-04-21 20:59:31 FLAPS EXTENSION 66 % 18220
2020-04-21 20:59:31 FLAPS EXTENSION 65 % 16220
2020-04-21 20:59:31 FLAPS EXTENSION 64 % 17220
2020-04-21 20:59:31 FLAPS EXTENSION 63 % 17220
2020-04-21 20:59:32 FLAPS EXTENSION 62 % 17220
2020-04-21 20:59:32 FLAPS EXTENSION 61 % 17220
2020-04-21 20:59:32 FLAPS EXTENSION 60 % 17220
2020-04-21 20:59:32 FLAPS EXTENSION 59 % 19220
2020-04-21 20:59:33 FLAPS EXTENSION 57 % 19220
2020-04-21 20:59:33 FLAPS EXTENSION 56 % 19220
2020-04-21 20:59:46 TAXI SPEED ABOVE 25 KTS28220
2020-04-21 21:01:18 STOPPING ENGINE 1 6220
2020-04-21 21:01:19 FLAPS EXTENSION 55 % 7219
2020-04-21 21:01:19 FLAPS EXTENSION 53 % 7219
2020-04-21 21:01:19 FLAPS EXTENSION 52 % 7219
2020-04-21 21:01:20 FLAPS EXTENSION 50 % 8219
2020-04-21 21:01:20 FLAPS EXTENSION 49 % 9219
2020-04-21 21:01:20 FLAPS EXTENSION 47 % 8219
2020-04-21 21:01:20 FLAPS EXTENSION 46 % 7219
2020-04-21 21:01:21 FLAPS EXTENSION 45 % 8219
2020-04-21 21:01:21 FLAPS EXTENSION 43 % 9219
2020-04-21 21:01:21 FLAPS EXTENSION 42 % 10219
2020-04-21 21:01:21 FLAPS EXTENSION 41 % 11219
2020-04-21 21:01:22 FLAPS EXTENSION 39 % 11219
2020-04-21 21:01:22 FLAPS EXTENSION 38 % 11220
2020-04-21 21:01:22 FLAPS EXTENSION 37 % 9220
2020-04-21 21:01:23 FLAPS EXTENSION 34 % 8220
2020-04-21 21:01:23 FLAPS EXTENSION 31 % 9220
2020-04-21 21:01:24 FLAPS EXTENSION 31 % 8220
2020-04-21 21:01:24 FLAPS EXTENSION 30 % 9220
2020-04-21 21:01:24 FLAPS EXTENSION 28 % 12220
2020-04-21 21:01:24 FLAPS EXTENSION 27 % 13220
2020-04-21 21:01:24 FLAPS EXTENSION 26 % 14220
2020-04-21 21:01:25 FLAPS EXTENSION 25 % 14220
2020-04-21 21:01:25 FLAPS EXTENSION 24 % 12220
2020-04-21 21:01:25 FLAPS EXTENSION 23 % 13220
2020-04-21 21:01:25 FLAPS EXTENSION 22 % 13220
2020-04-21 21:01:25 FLAPS EXTENSION 21 % 13220
2020-04-21 21:01:26 FLAPS EXTENSION 20 % 13220
2020-04-21 21:01:26 FLAPS EXTENSION 18 % 13220
2020-04-21 21:01:26 FLAPS EXTENSION 17 % 13220
2020-04-21 21:01:26 FLAPS EXTENSION 16 % 13220
2020-04-21 21:01:27 FLAPS EXTENSION 15 % 13220
2020-04-21 21:01:27 FLAPS EXTENSION 14 % 13220
2020-04-21 21:01:27 FLAPS EXTENSION 13 % 13220
2020-04-21 21:01:27 FLAPS EXTENSION 12 % 14220
2020-04-21 21:01:28 FLAPS EXTENSION 11 % 13220
2020-04-21 21:01:28 FLAPS EXTENSION 10 % 13220
2020-04-21 21:01:28 FLAPS EXTENSION 10 % 13220
2020-04-21 21:01:28 FLAPS EXTENSION 9 % 12220
2020-04-21 21:01:28 FLAPS EXTENSION 8 % 12220
2020-04-21 21:01:29 FLAPS EXTENSION 7 % 12220
2020-04-21 21:01:29 FLAPS EXTENSION 6 % 11220
2020-04-21 21:01:29 FLAPS EXTENSION 6 % 10220
2020-04-21 21:01:29 FLAPS EXTENSION 5 % 10220
2020-04-21 21:01:30 FLAPS EXTENSION 4 % 11220
2020-04-21 21:01:30 FLAPS EXTENSION 4 % 12220
2020-04-21 21:01:30 FLAPS EXTENSION 3 % 13220
2020-04-21 21:01:30 FLAPS EXTENSION 2 % 14220
2020-04-21 21:01:31 FLAPS EXTENSION 2 % 14220
2020-04-21 21:01:31 FLAPS EXTENSION 1 % 14220
2020-04-21 21:01:31 FLAPS EXTENSION 1 % 14220
2020-04-21 21:01:31 FLAPS EXTENSION 0 % 15220
2020-04-21 21:05:59 STOPPING ENGINE 2 1220
 ACARS DATA
DATE IASGSALTITUDEFUEL CONSUMED OATFLIGHT STATUS
2020-04-21 20:04:33008917BOARDING
2020-04-21 20:05:33008917BOARDING
2020-04-21 20:06:33008927BOARDING
2020-04-21 20:07:33008937BOARDING
2020-04-21 20:08:33008967BOARDING
2020-04-21 20:09:330089107BOARDING
2020-04-21 20:10:340089187BOARDING
2020-04-21 20:11:330089297BOARDING
2020-04-21 20:12:330089397BOARDING
2020-04-21 20:13:340089477BOARDING
2020-04-21 20:14:330089567BOARDING
2020-04-21 20:15:330189647BOARDING
2020-04-21 20:16:330089727BOARDING
2020-04-21 20:17:33151889817TAXI TO THE RWY
2020-04-21 20:18:33343689907TAXI TO THE RWY
2020-04-21 20:19:337889987TAXI TO THE RWY
2020-04-21 20:20:336157891097TAXI TO THE RWY
2020-04-21 20:21:331331318921315CLIMBING
2020-04-21 20:22:3314715619311463CLIMBING
2020-04-21 20:23:3315116729041662CLIMBING
2020-04-21 20:24:3315517538691820CLIMBING
2020-04-21 20:25:331591824815197-1CLIMBING
2020-04-21 20:26:33190217497721220CLIMBING
2020-04-21 20:27:33203229535922719CLIMBING
2020-04-21 20:28:33214241520223420DESCEND
2020-04-21 20:29:33219248496424720DESCEND
2020-04-21 20:30:33214244501625920CRUISE
2020-04-21 20:31:33218244500527320CRUISE
2020-04-21 20:32:33215244500828720CRUISE
2020-04-21 20:33:33214244499929520CRUISE
2020-04-21 20:34:33214244500031120CRUISE
2020-04-21 20:35:33218244500832620CRUISE
2020-04-21 20:36:33218244500933920CRUISE
2020-04-21 20:37:33220244494235120CRUISE
2020-04-21 20:38:33209234490436220DESCEND
2020-04-21 20:39:33207230463936921DESCEND
2020-04-21 20:40:33212242403238123DESCEND
2020-04-21 20:41:33220248320039225DESCEND
2020-04-21 20:42:33223250304840525CRUISE
2020-04-21 20:43:33225253304842125CRUISE
2020-04-21 20:44:33227254304543625CRUISE
2020-04-21 20:45:33221249303845125CRUISE
2020-04-21 20:45:22209237304746125CRUISE
2020-04-21 20:46:22205231302547125CRUISE
2020-04-21 20:47:22195208304248325CRUISE
2020-04-21 20:48:22148149301049125CRUISE
2020-04-21 20:49:22125126294450025DESCEND
2020-04-21 20:50:22134133317650825CLIMBING
2020-04-21 20:51:22136137332852224CLIMBING
2020-04-21 20:52:22143144325853324CRUISE
2020-04-21 20:53:22144143243754226DESCEND
2020-04-21 20:54:22132129270454828DESCEND
2020-04-21 20:55:22113110267455928DESCEND
2020-04-21 20:56:22106101178057228DESCEND
2020-04-21 20:57:2211110797058430DESCEND
2020-04-21 20:58:2210910424659632DESCEND
2020-04-21 20:59:22171421960732TAXI TO THE GATE
2020-04-21 21:00:2215521961632TAXI TO THE GATE
2020-04-21 21:01:2291921962332TAXI TO THE GATE
2020-04-21 21:02:220421962732TAXI TO THE GATE
2020-04-21 21:03:2241521663032TAXI TO THE GATE
2020-04-21 21:04:2261321963432TAXI TO THE GATE
2020-04-21 21:05:229021963832TAXI TO THE GATE
2020-04-21 21:06:229021964132TAXI TO THE GATE